sensor_id;sensor_type;location;lat;lon;timestamp;temperature;humidity
75985;DHT22;65033;44.660;37.758;2023-02-01T00:00:55;27.84;32.06
75985;DHT22;65033;44.660;37.758;2023-02-01T00:02:00;27.86;32.02
75985;DHT22;65033;44.660;37.758;2023-02-01T00:03:03;27.85;32.00
75985;DHT22;65033;44.660;37.758;2023-02-01T00:04:08;27.85;32.01
75985;DHT22;65033;44.660;37.758;2023-02-01T00:05:11;27.85;32.00
75985;DHT22;65033;44.660;37.758;2023-02-01T00:06:14;27.85;32.02
75985;DHT22;65033;44.660;37.758;2023-02-01T00:07:19;27.83;31.96
75985;DHT22;65033;44.660;37.758;2023-02-01T00:08:22;27.84;31.96
75985;DHT22;65033;44.660;37.758;2023-02-01T00:09:25;27.85;31.92
75985;DHT22;65033;44.660;37.758;2023-02-01T00:10:28;27.85;31.93
75985;DHT22;65033;44.660;37.758;2023-02-01T00:11:32;27.84;31.93
75985;DHT22;65033;44.660;37.758;2023-02-01T00:12:35;27.83;31.93
75985;DHT22;65033;44.660;37.758;2023-02-01T00:13:39;27.83;31.92
75985;DHT22;65033;44.660;37.758;2023-02-01T00:14:43;27.84;31.92
75985;DHT22;65033;44.660;37.758;2023-02-01T00:15:46;27.84;31.90
75985;DHT22;65033;44.660;37.758;2023-02-01T00:16:49;27.84;31.89
75985;DHT22;65033;44.660;37.758;2023-02-01T00:17:53;27.82;31.86
75985;DHT22;65033;44.660;37.758;2023-02-01T00:18:58;27.83;31.83
75985;DHT22;65033;44.660;37.758;2023-02-01T00:20:02;27.84;31.84
75985;DHT22;65033;44.660;37.758;2023-02-01T00:21:06;27.83;31.83
75985;DHT22;65033;44.660;37.758;2023-02-01T00:22:09;27.84;31.85
75985;DHT22;65033;44.660;37.758;2023-02-01T00:23:13;27.82;31.81
75985;DHT22;65033;44.660;37.758;2023-02-01T00:24:17;27.83;31.81
75985;DHT22;65033;44.660;37.758;2023-02-01T00:25:21;27.81;31.82
75985;DHT22;65033;44.660;37.758;2023-02-01T00:26:30;27.81;31.76
75985;DHT22;65033;44.660;37.758;2023-02-01T00:27:33;27.81;31.77
75985;DHT22;65033;44.660;37.758;2023-02-01T00:28:36;27.82;31.73
75985;DHT22;65033;44.660;37.758;2023-02-01T00:29:40;27.80;31.74
75985;DHT22;65033;44.660;37.758;2023-02-01T00:30:43;27.82;31.71
75985;DHT22;65033;44.660;37.758;2023-02-01T00:31:46;27.81;31.73
75985;DHT22;65033;44.660;37.758;2023-02-01T00:32:52;27.81;31.75
75985;DHT22;65033;44.660;37.758;2023-02-01T00:33:55;27.81;31.71
75985;DHT22;65033;44.660;37.758;2023-02-01T00:34:58;27.81;31.71
75985;DHT22;65033;44.660;37.758;2023-02-01T00:36:03;27.81;31.70
75985;DHT22;65033;44.660;37.758;2023-02-01T00:37:07;27.81;31.68
75985;DHT22;65033;44.660;37.758;2023-02-01T00:38:10;27.80;31.66
75985;DHT22;65033;44.660;37.758;2023-02-01T00:39:15;27.82;31.64
75985;DHT22;65033;44.660;37.758;2023-02-01T00:40:19;27.79;31.63
75985;DHT22;65033;44.660;37.758;2023-02-01T00:41:23;27.79;31.63
75985;DHT22;65033;44.660;37.758;2023-02-01T00:42:26;27.80;31.61
75985;DHT22;65033;44.660;37.758;2023-02-01T00:43:30;27.80;31.58
75985;DHT22;65033;44.660;37.758;2023-02-01T00:44:34;27.79;31.57
75985;DHT22;65033;44.660;37.758;2023-02-01T00:45:37;27.80;31.57
75985;DHT22;65033;44.660;37.758;2023-02-01T00:46:41;27.80;31.55
75985;DHT22;65033;44.660;37.758;2023-02-01T00:47:44;27.80;31.55
75985;DHT22;65033;44.660;37.758;2023-02-01T00:48:48;27.79;31.54
75985;DHT22;65033;44.660;37.758;2023-02-01T00:49:51;27.80;31.48
75985;DHT22;65033;44.660;37.758;2023-02-01T00:50:54;27.79;31.48
75985;DHT22;65033;44.660;37.758;2023-02-01T00:52:01;27.79;31.48
75985;DHT22;65033;44.660;37.758;2023-02-01T00:53:04;27.80;31.48
75985;DHT22;65033;44.660;37.758;2023-02-01T00:54:07;27.79;31.46
75985;DHT22;65033;44.660;37.758;2023-02-01T00:55:12;27.79;31.45
75985;DHT22;65033;44.660;37.758;2023-02-01T00:56:16;27.78;31.45
75985;DHT22;65033;44.660;37.758;2023-02-01T00:57:19;27.78;31.44
75985;DHT22;65033;44.660;37.758;2023-02-01T00:58:23;27.78;31.45
75985;DHT22;65033;44.660;37.758;2023-02-01T00:59:29;27.78;31.42
75985;DHT22;65033;44.660;37.758;2023-02-01T01:00:33;27.78;31.38
75985;DHT22;65033;44.660;37.758;2023-02-01T01:01:37;27.78;31.37
75985;DHT22;65033;44.660;37.758;2023-02-01T01:02:41;27.78;31.35
75985;DHT22;65033;44.660;37.758;2023-02-01T01:03:46;27.78;31.37
75985;DHT22;65033;44.660;37.758;2023-02-01T01:04:50;27.76;31.32
75985;DHT22;65033;44.660;37.758;2023-02-01T01:05:56;27.76;31.31
75985;DHT22;65033;44.660;37.758;2023-02-01T01:07:00;27.76;31.31
75985;DHT22;65033;44.660;37.758;2023-02-01T01:08:03;27.76;31.30
75985;DHT22;65033;44.660;37.758;2023-02-01T01:09:07;27.78;31.28
75985;DHT22;65033;44.660;37.758;2023-02-01T01:10:12;27.78;31.22
75985;DHT22;65033;44.660;37.758;2023-02-01T01:11:17;27.78;31.21
75985;DHT22;65033;44.660;37.758;2023-02-01T01:12:21;27.78;31.22
75985;DHT22;65033;44.660;37.758;2023-02-01T01:13:25;27.75;31.24
75985;DHT22;65033;44.660;37.758;2023-02-01T01:14:28;27.75;31.24
75985;DHT22;65033;44.660;37.758;2023-02-01T01:15:32;27.78;31.24
75985;DHT22;65033;44.660;37.758;2023-02-01T01:16:38;27.75;31.21
75985;DHT22;65033;44.660;37.758;2023-02-01T01:17:41;27.76;31.20
75985;DHT22;65033;44.660;37.758;2023-02-01T01:18:44;27.75;31.20
75985;DHT22;65033;44.660;37.758;2023-02-01T01:19:47;27.76;31.19
75985;DHT22;65033;44.660;37.758;2023-02-01T01:20:51;27.76;31.17
75985;DHT22;65033;44.660;37.758;2023-02-01T01:21:54;27.75;31.18
75985;DHT22;65033;44.660;37.758;2023-02-01T01:22:57;27.75;31.16
75985;DHT22;65033;44.660;37.758;2023-02-01T01:24:01;27.75;31.15
75985;DHT22;65033;44.660;37.758;2023-02-01T01:25:05;27.74;31.15
75985;DHT22;65033;44.660;37.758;2023-02-01T01:26:12;27.74;31.16
75985;DHT22;65033;44.660;37.758;2023-02-01T01:27:16;27.74;31.15
75985;DHT22;65033;44.660;37.758;2023-02-01T01:28:25;27.76;31.08
75985;DHT22;65033;44.660;37.758;2023-02-01T01:29:28;27.74;31.11
75985;DHT22;65033;44.660;37.758;2023-02-01T01:30:32;27.74;31.07
75985;DHT22;65033;44.660;37.758;2023-02-01T01:31:36;27.74;31.05
75985;DHT22;65033;44.660;37.758;2023-02-01T01:32:39;27.74;31.05
75985;DHT22;65033;44.660;37.758;2023-02-01T01:33:42;27.75;31.05
75985;DHT22;65033;44.660;37.758;2023-02-01T01:34:49;27.74;31.02
75985;DHT22;65033;44.660;37.758;2023-02-01T01:35:52;27.73;31.02
75985;DHT22;65033;44.660;37.758;2023-02-01T01:36:55;27.73;31.03
75985;DHT22;65033;44.660;37.758;2023-02-01T01:37:59;27.73;31.03
75985;DHT22;65033;44.660;37.758;2023-02-01T01:39:03;27.72;31.06
75985;DHT22;65033;44.660;37.758;2023-02-01T01:40:09;27.73;31.03
75985;DHT22;65033;44.660;37.758;2023-02-01T01:41:16;27.73;31.00
75985;DHT22;65033;44.660;37.758;2023-02-01T01:42:19;27.72;31.03
75985;DHT22;65033;44.660;37.758;2023-02-01T01:43:22;27.72;31.03
75985;DHT22;65033;44.660;37.758;2023-02-01T01:44:57;27.72;30.99
75985;DHT22;65033;44.660;37.758;2023-02-01T01:46:02;27.72;30.99
75985;DHT22;65033;44.660;37.758;2023-02-01T01:47:05;27.72;31.01
75985;DHT22;65033;44.660;37.758;2023-02-01T01:48:12;27.72;31.01
75985;DHT22;65033;44.660;37.758;2023-02-01T01:49:19;27.71;30.97
75985;DHT22;65033;44.660;37.758;2023-02-01T01:50:26;27.71;30.99
75985;DHT22;65033;44.660;37.758;2023-02-01T01:51:31;27.71;30.96
75985;DHT22;65033;44.660;37.758;2023-02-01T01:52:36;27.71;30.98
75985;DHT22;65033;44.660;37.758;2023-02-01T01:53:43;27.72;30.93
75985;DHT22;65033;44.660;37.758;2023-02-01T01:54:50;27.72;30.90
75985;DHT22;65033;44.660;37.758;2023-02-01T01:55:56;27.71;30.91
75985;DHT22;65033;44.660;37.758;2023-02-01T01:57:03;27.71;30.89
75985;DHT22;65033;44.660;37.758;2023-02-01T01:58:10;27.71;30.91
75985;DHT22;65033;44.660;37.758;2023-02-01T01:59:13;27.72;30.91
75985;DHT22;65033;44.660;37.758;2023-02-01T02:00:19;27.72;30.90
75985;DHT22;65033;44.660;37.758;2023-02-01T02:01:26;27.71;30.90
75985;DHT22;65033;44.660;37.758;2023-02-01T02:02:30;27.71;30.89
75985;DHT22;65033;44.660;37.758;2023-02-01T02:03:36;27.72;30.87
75985;DHT22;65033;44.660;37.758;2023-02-01T02:04:41;27.72;30.88
75985;DHT22;65033;44.660;37.758;2023-02-01T02:05:45;27.72;30.86
75985;DHT22;65033;44.660;37.758;2023-02-01T02:06:54;27.71;30.83
75985;DHT22;65033;44.660;37.758;2023-02-01T02:07:59;27.70;30.82
75985;DHT22;65033;44.660;37.758;2023-02-01T02:09:04;27.71;30.84
75985;DHT22;65033;44.660;37.758;2023-02-01T02:10:10;27.71;30.80
75985;DHT22;65033;44.660;37.758;2023-02-01T02:11:16;27.71;30.78
75985;DHT22;65033;44.660;37.758;2023-02-01T02:12:21;27.71;30.86
75985;DHT22;65033;44.660;37.758;2023-02-01T02:13:24;27.70;30.85
75985;DHT22;65033;44.660;37.758;2023-02-01T02:14:28;27.70;30.83
75985;DHT22;65033;44.660;37.758;2023-02-01T02:15:32;27.70;30.83
75985;DHT22;65033;44.660;37.758;2023-02-01T02:16:58;27.70;30.78
75985;DHT22;65033;44.660;37.758;2023-02-01T02:18:08;27.69;30.80
75985;DHT22;65033;44.660;37.758;2023-02-01T02:19:32;27.70;30.78
75985;DHT22;65033;44.660;37.758;2023-02-01T02:20:49;27.68;30.81
75985;DHT22;65033;44.660;37.758;2023-02-01T02:22:09;27.68;30.81
75985;DHT22;65033;44.660;37.758;2023-02-01T02:27:00;27.67;30.81
75985;DHT22;65033;44.660;37.758;2023-02-01T02:28:14;27.69;30.80
75985;DHT22;65033;44.660;37.758;2023-02-01T02:29:46;27.67;30.80
75985;DHT22;65033;44.660;37.758;2023-02-01T02:31:09;27.68;30.80
75985;DHT22;65033;44.660;37.758;2023-02-01T02:32:44;27.67;30.78
75985;DHT22;65033;44.660;37.758;2023-02-01T02:34:00;27.67;30.82
75985;DHT22;65033;44.660;37.758;2023-02-01T02:35:09;27.66;30.82
75985;DHT22;65033;44.660;37.758;2023-02-01T02:36:24;27.67;30.77
75985;DHT22;65033;44.660;37.758;2023-02-01T02:37:37;27.65;30.74
75985;DHT22;65033;44.660;37.758;2023-02-01T02:38:46;27.67;30.77
75985;DHT22;65033;44.660;37.758;2023-02-01T02:39:58;27.65;30.77
75985;DHT22;65033;44.660;37.758;2023-02-01T02:41:10;27.66;30.71
75985;DHT22;65033;44.660;37.758;2023-02-01T02:42:24;27.65;30.73
75985;DHT22;65033;44.660;37.758;2023-02-01T02:43:54;27.66;30.73
75985;DHT22;65033;44.660;37.758;2023-02-01T02:45:23;27.65;30.77
75985;DHT22;65033;44.660;37.758;2023-02-01T02:46:49;27.64;30.72
75985;DHT22;65033;44.660;37.758;2023-02-01T02:48:16;27.64;30.72
75985;DHT22;65033;44.660;37.758;2023-02-01T02:49:27;27.65;30.71
75985;DHT22;65033;44.660;37.758;2023-02-01T02:50:36;27.63;30.69
75985;DHT22;65033;44.660;37.758;2023-02-01T02:52:02;27.64;30.69
75985;DHT22;65033;44.660;37.758;2023-02-01T02:53:30;27.64;30.65
75985;DHT22;65033;44.660;37.758;2023-02-01T02:54:54;27.61;30.65
75985;DHT22;65033;44.660;37.758;2023-02-01T02:56:00;27.63;30.64
75985;DHT22;65033;44.660;37.758;2023-02-01T02:57:27;27.64;30.64
75985;DHT22;65033;44.660;37.758;2023-02-01T02:58:50;27.63;30.64
75985;DHT22;65033;44.660;37.758;2023-02-01T03:00:15;27.63;30.61
75985;DHT22;65033;44.660;37.758;2023-02-01T03:01:40;27.61;30.62
75985;DHT22;65033;44.660;37.758;2023-02-01T03:03:03;27.61;30.64
75985;DHT22;65033;44.660;37.758;2023-02-01T03:04:27;27.63;30.64
75985;DHT22;65033;44.660;37.758;2023-02-01T03:05:33;27.61;30.61
75985;DHT22;65033;44.660;37.758;2023-02-01T03:06:37;27.61;30.64
75985;DHT22;65033;44.660;37.758;2023-02-01T03:07:57;27.61;30.57
75985;DHT22;65033;44.660;37.758;2023-02-01T03:09:08;27.61;30.59
75985;DHT22;65033;44.660;37.758;2023-02-01T03:10:20;27.61;30.57
75985;DHT22;65033;44.660;37.758;2023-02-01T03:11:28;27.60;30.59
75985;DHT22;65033;44.660;37.758;2023-02-01T03:12:53;27.61;30.61
75985;DHT22;65033;44.660;37.758;2023-02-01T03:14:03;27.60;30.57
75985;DHT22;65033;44.660;37.758;2023-02-01T03:15:11;27.60;30.58
75985;DHT22;65033;44.660;37.758;2023-02-01T03:16:22;27.59;30.54
75985;DHT22;65033;44.660;37.758;2023-02-01T03:17:37;27.60;30.54
75985;DHT22;65033;44.660;37.758;2023-02-01T03:18:48;27.59;30.52
75985;DHT22;65033;44.660;37.758;2023-02-01T03:19:55;27.59;30.48
75985;DHT22;65033;44.660;37.758;2023-02-01T03:21:06;27.61;30.50
75985;DHT22;65033;44.660;37.758;2023-02-01T03:22:12;27.59;30.53
75985;DHT22;65033;44.660;37.758;2023-02-01T03:23:19;27.61;30.51
75985;DHT22;65033;44.660;37.758;2023-02-01T03:24:27;27.60;30.51
75985;DHT22;65033;44.660;37.758;2023-02-01T03:25:37;27.60;30.50
75985;DHT22;65033;44.660;37.758;2023-02-01T03:26:43;27.61;30.47
75985;DHT22;65033;44.660;37.758;2023-02-01T03:27:51;27.60;30.48
75985;DHT22;65033;44.660;37.758;2023-02-01T03:28:59;27.60;30.48
75985;DHT22;65033;44.660;37.758;2023-02-01T03:30:11;27.61;30.46
75985;DHT22;65033;44.660;37.758;2023-02-01T03:31:21;27.61;30.45
75985;DHT22;65033;44.660;37.758;2023-02-01T03:32:25;27.60;30.43
75985;DHT22;65033;44.660;37.758;2023-02-01T03:33:30;27.60;30.45
75985;DHT22;65033;44.660;37.758;2023-02-01T03:34:36;27.60;30.45
75985;DHT22;65033;44.660;37.758;2023-02-01T03:35:44;27.59;30.45
75985;DHT22;65033;44.660;37.758;2023-02-01T03:36:52;27.59;30.40
75985;DHT22;65033;44.660;37.758;2023-02-01T03:38:05;27.60;30.39
75985;DHT22;65033;44.660;37.758;2023-02-01T03:39:15;27.60;30.40
75985;DHT22;65033;44.660;37.758;2023-02-01T03:40:20;27.59;30.39
75985;DHT22;65033;44.660;37.758;2023-02-01T03:41:28;27.61;30.42
75985;DHT22;65033;44.660;37.758;2023-02-01T03:42:35;27.60;30.37
75985;DHT22;65033;44.660;37.758;2023-02-01T03:43:47;27.60;30.37
75985;DHT22;65033;44.660;37.758;2023-02-01T03:44:57;27.59;30.36
75985;DHT22;65033;44.660;37.758;2023-02-01T03:46:04;27.60;30.37
75985;DHT22;65033;44.660;37.758;2023-02-01T03:47:15;27.60;30.06
75985;DHT22;65033;44.660;37.758;2023-02-01T03:48:27;27.59;29.55
75985;DHT22;65033;44.660;37.758;2023-02-01T03:49:34;27.59;29.09
75985;DHT22;65033;44.660;37.758;2023-02-01T03:50:46;27.59;29.00
75985;DHT22;65033;44.660;37.758;2023-02-01T03:51:51;27.59;29.22
75985;DHT22;65033;44.660;37.758;2023-02-01T03:52:59;27.59;29.61
75985;DHT22;65033;44.660;37.758;2023-02-01T03:54:05;27.58;29.77
75985;DHT22;65033;44.660;37.758;2023-02-01T03:55:11;27.57;29.85
75985;DHT22;65033;44.660;37.758;2023-02-01T03:56:17;27.57;29.84
75985;DHT22;65033;44.660;37.758;2023-02-01T03:57:25;27.57;29.84
75985;DHT22;65033;44.660;37.758;2023-02-01T03:58:29;27.58;29.82
75985;DHT22;65033;44.660;37.758;2023-02-01T03:59:32;27.57;29.84
75985;DHT22;65033;44.660;37.758;2023-02-01T04:00:36;27.58;29.83
75985;DHT22;65033;44.660;37.758;2023-02-01T04:01:40;27.57;29.84
75985;DHT22;65033;44.660;37.758;2023-02-01T04:02:43;27.58;29.85
75985;DHT22;65033;44.660;37.758;2023-02-01T04:03:47;27.57;29.84
75985;DHT22;65033;44.660;37.758;2023-02-01T04:04:50;27.57;29.89
75985;DHT22;65033;44.660;37.758;2023-02-01T04:05:56;27.57;29.86
75985;DHT22;65033;44.660;37.758;2023-02-01T04:07:02;27.58;29.83
75985;DHT22;65033;44.660;37.758;2023-02-01T04:08:06;27.57;29.74
75985;DHT22;65033;44.660;37.758;2023-02-01T04:09:09;27.58;29.74
75985;DHT22;65033;44.660;37.758;2023-02-01T04:10:13;27.57;29.72
75985;DHT22;65033;44.660;37.758;2023-02-01T04:11:16;27.57;29.72
75985;DHT22;65033;44.660;37.758;2023-02-01T04:12:20;27.57;29.76
75985;DHT22;65033;44.660;37.758;2023-02-01T04:13:23;27.57;29.75
75985;DHT22;65033;44.660;37.758;2023-02-01T04:14:26;27.57;29.71
75985;DHT22;65033;44.660;37.758;2023-02-01T04:15:30;27.57;29.71
75985;DHT22;65033;44.660;37.758;2023-02-01T04:16:33;27.57;29.74
75985;DHT22;65033;44.660;37.758;2023-02-01T04:17:37;27.58;29.77
75985;DHT22;65033;44.660;37.758;2023-02-01T04:18:38;27.59;29.79
75985;DHT22;65033;44.660;37.758;2023-02-01T04:19:42;27.59;29.83
75985;DHT22;65033;44.660;37.758;2023-02-01T04:20:45;27.59;29.85
75985;DHT22;65033;44.660;37.758;2023-02-01T04:21:50;27.59;29.84
75985;DHT22;65033;44.660;37.758;2023-02-01T04:22:53;27.60;29.85
75985;DHT22;65033;44.660;37.758;2023-02-01T04:23:56;27.58;29.87
75985;DHT22;65033;44.660;37.758;2023-02-01T04:25:00;27.58;29.88
75985;DHT22;65033;44.660;37.758;2023-02-01T04:26:04;27.58;29.90
75985;DHT22;65033;44.660;37.758;2023-02-01T04:27:07;27.59;29.92
75985;DHT22;65033;44.660;37.758;2023-02-01T04:28:10;27.58;29.90
75985;DHT22;65033;44.660;37.758;2023-02-01T04:29:14;27.60;29.93
75985;DHT22;65033;44.660;37.758;2023-02-01T04:30:17;27.58;29.96
75985;DHT22;65033;44.660;37.758;2023-02-01T04:31:21;27.59;29.93
75985;DHT22;65033;44.660;37.758;2023-02-01T04:32:30;27.59;29.92
75985;DHT22;65033;44.660;37.758;2023-02-01T04:33:33;27.57;29.91
75985;DHT22;65033;44.660;37.758;2023-02-01T04:34:37;27.59;29.90
75985;DHT22;65033;44.660;37.758;2023-02-01T04:35:40;27.59;29.90
75985;DHT22;65033;44.660;37.758;2023-02-01T04:36:43;27.60;29.89
75985;DHT22;65033;44.660;37.758;2023-02-01T04:37:50;27.59;29.89
75985;DHT22;65033;44.660;37.758;2023-02-01T04:38:53;27.60;29.93
75985;DHT22;65033;44.660;37.758;2023-02-01T04:39:56;27.60;29.94
75985;DHT22;65033;44.660;37.758;2023-02-01T04:40:59;27.60;29.93
75985;DHT22;65033;44.660;37.758;2023-02-01T04:42:03;27.61;29.95
75985;DHT22;65033;44.660;37.758;2023-02-01T04:43:06;27.60;29.89
75985;DHT22;65033;44.660;37.758;2023-02-01T04:44:13;27.60;29.86
75985;DHT22;65033;44.660;37.758;2023-02-01T04:45:17;27.60;29.88
75985;DHT22;65033;44.660;37.758;2023-02-01T04:46:21;27.59;29.90
75985;DHT22;65033;44.660;37.758;2023-02-01T04:47:24;27.60;29.93
75985;DHT22;65033;44.660;37.758;2023-02-01T04:48:28;27.60;29.94
75985;DHT22;65033;44.660;37.758;2023-02-01T04:49:31;27.60;29.96
75985;DHT22;65033;44.660;37.758;2023-02-01T04:50:34;27.60;29.97
75985;DHT22;65033;44.660;37.758;2023-02-01T04:51:38;27.61;30.00
75985;DHT22;65033;44.660;37.758;2023-02-01T04:52:41;27.61;29.43
75985;DHT22;65033;44.660;37.758;2023-02-01T04:53:46;27.60;28.95
75985;DHT22;65033;44.660;37.758;2023-02-01T04:54:49;27.59;28.93
75985;DHT22;65033;44.660;37.758;2023-02-01T04:55:52;27.59;29.03
75985;DHT22;65033;44.660;37.758;2023-02-01T04:56:55;27.59;29.36
75985;DHT22;65033;44.660;37.758;2023-02-01T04:57:58;27.60;29.63
75985;DHT22;65033;44.660;37.758;2023-02-01T04:59:02;27.60;29.72
75985;DHT22;65033;44.660;37.758;2023-02-01T05:00:07;27.60;29.73
75985;DHT22;65033;44.660;37.758;2023-02-01T05:01:12;27.59;29.77
75985;DHT22;65033;44.660;37.758;2023-02-01T05:02:15;27.59;29.80
75985;DHT22;65033;44.660;37.758;2023-02-01T05:03:18;27.59;29.89
75985;DHT22;65033;44.660;37.758;2023-02-01T05:04:22;27.59;29.88
75985;DHT22;65033;44.660;37.758;2023-02-01T05:05:26;27.59;29.90
75985;DHT22;65033;44.660;37.758;2023-02-01T05:06:29;27.60;29.92
75985;DHT22;65033;44.660;37.758;2023-02-01T05:07:33;27.61;29.88
75985;DHT22;65033;44.660;37.758;2023-02-01T05:08:37;27.60;29.90
75985;DHT22;65033;44.660;37.758;2023-02-01T05:09:42;27.61;29.87
75985;DHT22;65033;44.660;37.758;2023-02-01T05:10:45;27.60;29.90
75985;DHT22;65033;44.660;37.758;2023-02-01T05:11:48;27.60;29.90
75985;DHT22;65033;44.660;37.758;2023-02-01T05:13:10;27.61;29.90
75985;DHT22;65033;44.660;37.758;2023-02-01T05:14:32;27.61;29.90
75985;DHT22;65033;44.660;37.758;2023-02-01T05:15:35;27.63;29.90
75985;DHT22;65033;44.660;37.758;2023-02-01T05:16:38;27.61;29.90
75985;DHT22;65033;44.660;37.758;2023-02-01T05:17:41;27.60;29.90
75985;DHT22;65033;44.660;37.758;2023-02-01T05:18:45;27.63;29.96
75985;DHT22;65033;44.660;37.758;2023-02-01T05:19:48;27.61;29.99
75985;DHT22;65033;44.660;37.758;2023-02-01T05:20:51;27.61;29.99
75985;DHT22;65033;44.660;37.758;2023-02-01T05:21:54;27.63;30.03
75985;DHT22;65033;44.660;37.758;2023-02-01T05:22:58;27.60;30.08
75985;DHT22;65033;44.660;37.758;2023-02-01T05:24:01;27.61;29.78
75985;DHT22;65033;44.660;37.758;2023-02-01T05:25:14;27.61;29.04
75985;DHT22;65033;44.660;37.758;2023-02-01T05:26:17;27.61;28.74
75985;DHT22;65033;44.660;37.758;2023-02-01T05:27:21;27.60;28.32
75985;DHT22;65033;44.660;37.758;2023-02-01T05:28:24;27.61;28.48
75985;DHT22;65033;44.660;37.758;2023-02-01T05:29:27;27.61;28.74
75985;DHT22;65033;44.660;37.758;2023-02-01T05:30:31;27.63;29.03
75985;DHT22;65033;44.660;37.758;2023-02-01T05:31:35;27.64;29.28
75985;DHT22;65033;44.660;37.758;2023-02-01T05:32:38;27.63;29.48
75985;DHT22;65033;44.660;37.758;2023-02-01T05:33:42;27.63;29.56
75985;DHT22;65033;44.660;37.758;2023-02-01T05:34:45;27.63;29.58
75985;DHT22;65033;44.660;37.758;2023-02-01T05:35:48;27.64;29.51
75985;DHT22;65033;44.660;37.758;2023-02-01T05:36:53;27.63;29.65
75985;DHT22;65033;44.660;37.758;2023-02-01T05:37:56;27.63;29.77
75985;DHT22;65033;44.660;37.758;2023-02-01T05:38:59;27.60;29.82
75985;DHT22;65033;44.660;37.758;2023-02-01T05:40:03;27.61;28.97
75985;DHT22;65033;44.660;37.758;2023-02-01T05:41:08;27.61;28.20
75985;DHT22;65033;44.660;37.758;2023-02-01T05:42:11;27.61;28.58
75985;DHT22;65033;44.660;37.758;2023-02-01T05:43:14;27.63;28.64
75985;DHT22;65033;44.660;37.758;2023-02-01T05:44:18;27.64;28.81
75985;DHT22;65033;44.660;37.758;2023-02-01T05:45:21;27.65;29.03
75985;DHT22;65033;44.660;37.758;2023-02-01T05:46:25;27.65;29.16
75985;DHT22;65033;44.660;37.758;2023-02-01T05:47:28;27.65;29.22
75985;DHT22;65033;44.660;37.758;2023-02-01T05:48:31;27.65;29.19
75985;DHT22;65033;44.660;37.758;2023-02-01T05:49:34;27.66;29.22
75985;DHT22;65033;44.660;37.758;2023-02-01T05:50:38;27.66;29.29
75985;DHT22;65033;44.660;37.758;2023-02-01T05:51:44;27.67;29.32
75985;DHT22;65033;44.660;37.758;2023-02-01T05:52:47;27.70;29.33
75985;DHT22;65033;44.660;37.758;2023-02-01T05:53:51;27.70;29.39
75985;DHT22;65033;44.660;37.758;2023-02-01T05:54:54;27.71;29.38
75985;DHT22;65033;44.660;37.758;2023-02-01T05:55:57;27.73;29.44
75985;DHT22;65033;44.660;37.758;2023-02-01T05:57:02;27.75;29.46
75985;DHT22;65033;44.660;37.758;2023-02-01T05:58:05;27.78;29.38
75985;DHT22;65033;44.660;37.758;2023-02-01T05:59:09;27.80;29.39
75985;DHT22;65033;44.660;37.758;2023-02-01T06:00:14;27.81;29.38
75985;DHT22;65033;44.660;37.758;2023-02-01T06:01:17;27.84;29.32
75985;DHT22;65033;44.660;37.758;2023-02-01T06:02:20;27.86;29.36
75985;DHT22;65033;44.660;37.758;2023-02-01T06:03:25;27.89;29.41
75985;DHT22;65033;44.660;37.758;2023-02-01T06:04:28;27.94;29.36
75985;DHT22;65033;44.660;37.758;2023-02-01T06:05:31;27.95;29.29
75985;DHT22;65033;44.660;37.758;2023-02-01T06:06:35;27.97;29.31
75985;DHT22;65033;44.660;37.758;2023-02-01T06:07:39;27.99;29.31
75985;DHT22;65033;44.660;37.758;2023-02-01T06:08:42;28.00;29.26
75985;DHT22;65033;44.660;37.758;2023-02-01T06:09:45;28.03;29.24
75985;DHT22;65033;44.660;37.758;2023-02-01T06:10:49;28.04;29.22
75985;DHT22;65033;44.660;37.758;2023-02-01T06:11:52;28.08;29.27
75985;DHT22;65033;44.660;37.758;2023-02-01T06:12:56;28.09;29.28
75985;DHT22;65033;44.660;37.758;2023-02-01T06:14:00;28.12;29.22
75985;DHT22;65033;44.660;37.758;2023-02-01T06:15:03;28.14;29.25
75985;DHT22;65033;44.660;37.758;2023-02-01T06:16:07;28.15;29.32
75985;DHT22;65033;44.660;37.758;2023-02-01T06:17:10;28.16;29.27
75985;DHT22;65033;44.660;37.758;2023-02-01T06:18:13;28.17;29.30
75985;DHT22;65033;44.660;37.758;2023-02-01T06:19:18;28.20;29.32
75985;DHT22;65033;44.660;37.758;2023-02-01T06:20:21;28.21;29.36
75985;DHT22;65033;44.660;37.758;2023-02-01T06:21:25;28.24;29.36
75985;DHT22;65033;44.660;37.758;2023-02-01T06:22:29;28.26;29.64
75985;DHT22;65033;44.660;37.758;2023-02-01T06:23:32;28.27;29.59
75985;DHT22;65033;44.660;37.758;2023-02-01T06:24:35;28.29;29.63
75985;DHT22;65033;44.660;37.758;2023-02-01T06:25:38;28.32;29.69
75985;DHT22;65033;44.660;37.758;2023-02-01T06:26:41;28.32;29.73
75985;DHT22;65033;44.660;37.758;2023-02-01T06:27:45;28.34;29.71
75985;DHT22;65033;44.660;37.758;2023-02-01T06:28:49;28.37;29.65
75985;DHT22;65033;44.660;37.758;2023-02-01T06:29:53;28.38;29.61
75985;DHT22;65033;44.660;37.758;2023-02-01T06:30:58;28.40;29.67
75985;DHT22;65033;44.660;37.758;2023-02-01T06:32:01;28.42;29.58
75985;DHT22;65033;44.660;37.758;2023-02-01T06:33:05;28.43;29.56
75985;DHT22;65033;44.660;37.758;2023-02-01T06:34:08;28.45;29.60
75985;DHT22;65033;44.660;37.758;2023-02-01T06:35:11;28.48;29.52
75985;DHT22;65033;44.660;37.758;2023-02-01T06:36:18;28.49;29.59
75985;DHT22;65033;44.660;37.758;2023-02-01T06:37:24;28.53;29.51
75985;DHT22;65033;44.660;37.758;2023-02-01T06:38:33;28.54;29.38
75985;DHT22;65033;44.660;37.758;2023-02-01T06:39:39;28.56;29.39
75985;DHT22;65033;44.660;37.758;2023-02-01T06:40:42;28.58;29.51
75985;DHT22;65033;44.660;37.758;2023-02-01T06:41:46;28.59;29.45
75985;DHT22;65033;44.660;37.758;2023-02-01T06:42:50;28.59;29.45
75985;DHT22;65033;44.660;37.758;2023-02-01T06:43:54;28.61;28.77
75985;DHT22;65033;44.660;37.758;2023-02-01T06:44:58;28.61;28.74
75985;DHT22;65033;44.660;37.758;2023-02-01T06:46:02;28.62;28.84
75985;DHT22;65033;44.660;37.758;2023-02-01T06:47:05;28.64;28.91
75985;DHT22;65033;44.660;37.758;2023-02-01T06:48:10;28.65;29.01
75985;DHT22;65033;44.660;37.758;2023-02-01T06:49:13;28.68;29.01
75985;DHT22;65033;44.660;37.758;2023-02-01T06:50:17;28.69;28.90
75985;DHT22;65033;44.660;37.758;2023-02-01T06:51:22;28.71;28.88
75985;DHT22;65033;44.660;37.758;2023-02-01T06:52:25;28.73;28.83
75985;DHT22;65033;44.660;37.758;2023-02-01T06:53:29;28.74;28.74
75985;DHT22;65033;44.660;37.758;2023-02-01T06:54:32;28.76;28.74
75985;DHT22;65033;44.660;37.758;2023-02-01T06:55:37;28.77;28.64